sensor_id;sensor_type;location;lat;lon;timestamp;pressure;altitude;pressure_sealevel;temperature;humidity
72285;BME280;60220;53.552;10.092;2023-04-26T00:01:55;101199.72;;;6.28;70.08
72285;BME280;60220;53.552;10.092;2023-04-26T00:04:23;101203.59;;;5.90;70.06
72285;BME280;60220;53.552;10.092;2023-04-26T00:06:49;101201.28;;;6.13;69.75
72285;BME280;60220;53.552;10.092;2023-04-26T00:09:16;101196.22;;;5.63;71.51
72285;BME280;60220;53.552;10.092;2023-04-26T00:11:47;101200.66;;;6.35;70.04
72285;BME280;60220;53.552;10.092;2023-04-26T00:14:15;101208.63;;;6.48;68.70
72285;BME280;60220;53.552;10.092;2023-04-26T00:16:45;101207.03;;;5.87;70.34
72285;BME280;60220;53.552;10.092;2023-04-26T00:19:11;101205.41;;;5.38;71.54
72285;BME280;60220;53.552;10.092;2023-04-26T00:21:38;101205.50;;;5.44;72.57
72285;BME280;60220;53.552;10.092;2023-04-26T00:24:05;101208.22;;;6.12;71.59
72285;BME280;60220;53.552;10.092;2023-04-26T00:26:32;101210.28;;;6.40;69.50
72285;BME280;60220;53.552;10.092;2023-04-26T00:29:03;101215.22;;;6.16;69.40
72285;BME280;60220;53.552;10.092;2023-04-26T00:31:30;101216.91;;;6.11;69.99
72285;BME280;60220;53.552;10.092;2023-04-26T00:33:59;101227.34;;;6.14;70.26
72285;BME280;60220;53.552;10.092;2023-04-26T00:36:26;101213.91;;;5.28;72.16
72285;BME280;60220;53.552;10.092;2023-04-26T00:38:53;101213.47;;;5.01;75.86
72285;BME280;60220;53.552;10.092;2023-04-26T00:41:22;101227.44;;;5.06;76.77
72285;BME280;60220;53.552;10.092;2023-04-26T00:43:50;101218.34;;;5.34;75.75
72285;BME280;60220;53.552;10.092;2023-04-26T00:46:19;101211.22;;;5.79;74.42
72285;BME280;60220;53.552;10.092;2023-04-26T00:48:46;101215.28;;;5.57;73.43
72285;BME280;60220;53.552;10.092;2023-04-26T00:51:13;101207.78;;;5.82;73.83
72285;BME280;60220;53.552;10.092;2023-04-26T00:53:41;101214.88;;;5.90;72.55
72285;BME280;60220;53.552;10.092;2023-04-26T00:56:08;101205.84;;;5.69;73.29
72285;BME280;60220;53.552;10.092;2023-04-26T00:58:37;101207.22;;;6.01;72.00
72285;BME280;60220;53.552;10.092;2023-04-26T01:01:05;101208.16;;;6.06;71.90
72285;BME280;60220;53.552;10.092;2023-04-26T01:03:34;101211.22;;;5.78;72.54
72285;BME280;60220;53.552;10.092;2023-04-26T01:06:00;101216.66;;;5.36;73.44
72285;BME280;60220;53.552;10.092;2023-04-26T01:08:27;101217.88;;;5.57;75.28
72285;BME280;60220;53.552;10.092;2023-04-26T01:10:54;101206.53;;;5.55;73.54
72285;BME280;60220;53.552;10.092;2023-04-26T01:13:22;101208.41;;;5.64;73.73
72285;BME280;60220;53.552;10.092;2023-04-26T01:15:48;101207.72;;;5.76;72.50
72285;BME280;60220;53.552;10.092;2023-04-26T01:18:15;101211.53;;;5.99;72.12
72285;BME280;60220;53.552;10.092;2023-04-26T01:20:43;101214.63;;;6.40;70.53
72285;BME280;60220;53.552;10.092;2023-04-26T01:23:12;101214.25;;;5.49;72.05
72285;BME280;60220;53.552;10.092;2023-04-26T01:25:39;101214.84;;;5.30;73.31
72285;BME280;60220;53.552;10.092;2023-04-26T01:28:06;101215.59;;;5.80;73.43
72285;BME280;60220;53.552;10.092;2023-04-26T01:30:32;101220.44;;;5.02;74.98
72285;BME280;60220;53.552;10.092;2023-04-26T01:32:59;101225.69;;;5.05;75.20
72285;BME280;60220;53.552;10.092;2023-04-26T01:35:28;101238.47;;;4.91;75.95
72285;BME280;60220;53.552;10.092;2023-04-26T01:37:55;101235.22;;;5.03;76.18
72285;BME280;60220;53.552;10.092;2023-04-26T01:40:23;101229.47;;;4.72;75.71
72285;BME280;60220;53.552;10.092;2023-04-26T01:42:50;101236.22;;;4.63;77.40
72285;BME280;60220;53.552;10.092;2023-04-26T01:45:16;101239.38;;;4.95;75.48
72285;BME280;60220;53.552;10.092;2023-04-26T01:47:46;101229.09;;;5.55;73.92
72285;BME280;60220;53.552;10.092;2023-04-26T01:50:12;101232.47;;;5.49;73.43
72285;BME280;60220;53.552;10.092;2023-04-26T01:52:39;101234.53;;;5.14;74.47
72285;BME280;60220;53.552;10.092;2023-04-26T01:55:07;101231.66;;;5.52;74.69
72285;BME280;60220;53.552;10.092;2023-04-26T01:57:37;101223.38;;;5.22;74.36
72285;BME280;60220;53.552;10.092;2023-04-26T02:00:05;101229.50;;;4.75;74.88
72285;BME280;60220;53.552;10.092;2023-04-26T02:02:33;101236.22;;;5.11;74.62
72285;BME280;60220;53.552;10.092;2023-04-26T02:04:59;101235.22;;;5.04;74.34
72285;BME280;60220;53.552;10.092;2023-04-26T02:07:26;101226.66;;;4.63;77.10
72285;BME280;60220;53.552;10.092;2023-04-26T02:09:53;101225.69;;;5.59;75.03
72285;BME280;60220;53.552;10.092;2023-04-26T02:12:19;101231.22;;;5.25;74.51
72285;BME280;60220;53.552;10.092;2023-04-26T02:14:47;101223.31;;;5.73;72.79
72285;BME280;60220;53.552;10.092;2023-04-26T02:17:14;101227.63;;;5.72;72.50
72285;BME280;60220;53.552;10.092;2023-04-26T02:19:41;101245.69;;;5.61;73.00
72285;BME280;60220;53.552;10.092;2023-04-26T02:22:10;101241.66;;;5.26;73.68
72285;BME280;60220;53.552;10.092;2023-04-26T02:24:37;101260.81;;;5.30;73.98
72285;BME280;60220;53.552;10.092;2023-04-26T02:27:04;101258.78;;;5.12;75.44
72285;BME280;60220;53.552;10.092;2023-04-26T02:29:31;101268.84;;;5.43;76.42
72285;BME280;60220;53.552;10.092;2023-04-26T02:31:58;101260.59;;;4.68;78.57
72285;BME280;60220;53.552;10.092;2023-04-26T02:34:25;101263.09;;;4.21;79.60
72285;BME280;60220;53.552;10.092;2023-04-26T02:36:52;101250.34;;;4.32;81.78
72285;BME280;60220;53.552;10.092;2023-04-26T02:39:19;101259.44;;;4.55;81.65
72285;BME280;60220;53.552;10.092;2023-04-26T02:41:46;101256.00;;;4.56;80.36
72285;BME280;60220;53.552;10.092;2023-04-26T02:44:15;101253.78;;;4.31;80.67
72285;BME280;60220;53.552;10.092;2023-04-26T02:46:42;101255.13;;;4.14;81.68
72285;BME280;60220;53.552;10.092;2023-04-26T02:49:12;101246.91;;;4.33;81.91
72285;BME280;60220;53.552;10.092;2023-04-26T02:51:39;101249.63;;;4.86;81.65
72285;BME280;60220;53.552;10.092;2023-04-26T02:54:05;101244.66;;;4.98;80.37
72285;BME280;60220;53.552;10.092;2023-04-26T02:56:32;101236.50;;;5.29;78.16
72285;BME280;60220;53.552;10.092;2023-04-26T02:58:59;101238.84;;;5.12;77.52
72285;BME280;60220;53.552;10.092;2023-04-26T03:01:26;101238.69;;;4.58;78.25
72285;BME280;60220;53.552;10.092;2023-04-26T03:03:54;101238.50;;;4.46;80.18
72285;BME280;60220;53.552;10.092;2023-04-26T03:06:23;101237.66;;;4.47;79.62
72285;BME280;60220;53.552;10.092;2023-04-26T03:08:54;101240.72;;;4.71;80.39
72285;BME280;60220;53.552;10.092;2023-04-26T03:11:21;101241.38;;;5.08;79.18
72285;BME280;60220;53.552;10.092;2023-04-26T03:13:48;101238.38;;;5.36;78.20
72285;BME280;60220;53.552;10.092;2023-04-26T03:16:18;101237.28;;;5.24;78.00
72285;BME280;60220;53.552;10.092;2023-04-26T03:18:44;101247.69;;;5.22;78.06
72285;BME280;60220;53.552;10.092;2023-04-26T03:21:11;101252.81;;;5.19;78.44
72285;BME280;60220;53.552;10.092;2023-04-26T03:23:39;101247.41;;;4.60;80.69
72285;BME280;60220;53.552;10.092;2023-04-26T03:26:06;101243.84;;;4.55;80.18
72285;BME280;60220;53.552;10.092;2023-04-26T03:28:33;101243.38;;;4.31;80.11
72285;BME280;60220;53.552;10.092;2023-04-26T03:31:00;101247.59;;;4.26;80.77
72285;BME280;60220;53.552;10.092;2023-04-26T03:33:27;101236.38;;;4.27;80.95
72285;BME280;60220;53.552;10.092;2023-04-26T03:35:54;101237.66;;;4.95;80.50
72285;BME280;60220;53.552;10.092;2023-04-26T03:38:20;101233.56;;;5.08;78.00
72285;BME280;60220;53.552;10.092;2023-04-26T03:40:49;101233.34;;;4.96;78.07
72285;BME280;60220;53.552;10.092;2023-04-26T03:43:16;101235.19;;;5.01;78.04
72285;BME280;60220;53.552;10.092;2023-04-26T03:45:45;101238.09;;;4.71;78.48
72285;BME280;60220;53.552;10.092;2023-04-26T03:48:13;101246.94;;;4.36;79.73
72285;BME280;60220;53.552;10.092;2023-04-26T03:50:40;101237.19;;;4.69;80.11
72285;BME280;60220;53.552;10.092;2023-04-26T03:53:09;101237.59;;;4.46;79.45
72285;BME280;60220;53.552;10.092;2023-04-26T03:55:40;101245.91;;;4.71;79.15
72285;BME280;60220;53.552;10.092;2023-04-26T03:58:08;101244.56;;;4.92;78.81
72285;BME280;60220;53.552;10.092;2023-04-26T04:00:36;101241.09;;;4.93;78.22
72285;BME280;60220;53.552;10.092;2023-04-26T04:03:02;101236.38;;;4.72;77.87
72285;BME280;60220;53.552;10.092;2023-04-26T04:05:29;101238.31;;;4.84;78.54
72285;BME280;60220;53.552;10.092;2023-04-26T04:07:59;101250.06;;;5.10;77.20
72285;BME280;60220;53.552;10.092;2023-04-26T04:10:26;101248.72;;;4.82;76.97
72285;BME280;60220;53.552;10.092;2023-04-26T04:12:55;101253.47;;;4.59;78.34
72285;BME280;60220;53.552;10.092;2023-04-26T04:15:23;101256.84;;;4.55;77.91
72285;BME280;60220;53.552;10.092;2023-04-26T04:17:51;101253.53;;;4.62;78.85
72285;BME280;60220;53.552;10.092;2023-04-26T04:20:20;101252.75;;;4.66;78.19
72285;BME280;60220;53.552;10.092;2023-04-26T04:22:47;101245.75;;;4.62;78.70
72285;BME280;60220;53.552;10.092;2023-04-26T04:25:14;101249.50;;;4.80;77.82
72285;BME280;60220;53.552;10.092;2023-04-26T04:27:41;101255.66;;;5.34;76.82
72285;BME280;60220;53.552;10.092;2023-04-26T04:30:08;101260.47;;;5.10;75.56
72285;BME280;60220;53.552;10.092;2023-04-26T04:32:40;101251.09;;;5.18;76.45
72285;BME280;60220;53.552;10.092;2023-04-26T04:35:09;101255.78;;;5.40;76.45
72285;BME280;60220;53.552;10.092;2023-04-26T04:37:36;101260.63;;;5.19;76.67
72285;BME280;60220;53.552;10.092;2023-04-26T04:40:03;101274.69;;;5.30;76.46
72285;BME280;60220;53.552;10.092;2023-04-26T04:42:32;101271.16;;;4.77;76.96
72285;BME280;60220;53.552;10.092;2023-04-26T04:45:02;101265.47;;;4.11;80.13
72285;BME280;60220;53.552;10.092;2023-04-26T04:47:29;101276.84;;;5.04;79.22
72285;BME280;60220;53.552;10.092;2023-04-26T04:49:57;101278.28;;;5.38;77.43
72285;BME280;60220;53.552;10.092;2023-04-26T04:52:24;101277.84;;;5.63;76.15
72285;BME280;60220;53.552;10.092;2023-04-26T04:54:52;101281.16;;;5.02;75.80
72285;BME280;60220;53.552;10.092;2023-04-26T04:57:18;101289.19;;;4.68;77.82
72285;BME280;60220;53.552;10.092;2023-04-26T04:59:45;101285.72;;;4.67;78.39
72285;BME280;60220;53.552;10.092;2023-04-26T05:02:11;101288.88;;;4.54;78.54
72285;BME280;60220;53.552;10.092;2023-04-26T05:04:39;101285.41;;;4.52;79.77
72285;BME280;60220;53.552;10.092;2023-04-26T05:07:09;101282.94;;;5.05;77.36
72285;BME280;60220;53.552;10.092;2023-04-26T05:09:35;101276.66;;;4.94;77.55
72285;BME280;60220;53.552;10.092;2023-04-26T05:12:02;101284.16;;;5.25;78.57
72285;BME280;60220;53.552;10.092;2023-04-26T05:14:29;101273.03;;;5.35;76.22
72285;BME280;60220;53.552;10.092;2023-04-26T05:16:59;101273.44;;;5.07;76.72
72285;BME280;60220;53.552;10.092;2023-04-26T05:19:26;101272.56;;;5.57;76.75
72285;BME280;60220;53.552;10.092;2023-04-26T05:21:52;101276.63;;;5.43;75.76
72285;BME280;60220;53.552;10.092;2023-04-26T05:24:20;101278.66;;;5.59;75.69
72285;BME280;60220;53.552;10.092;2023-04-26T05:26:47;101272.59;;;4.61;77.33
72285;BME280;60220;53.552;10.092;2023-04-26T05:29:14;101275.19;;;5.08;77.76
72285;BME280;60220;53.552;10.092;2023-04-26T05:31:40;101284.38;;;4.88;77.77
72285;BME280;60220;53.552;10.092;2023-04-26T05:34:08;101277.38;;;5.35;77.84
72285;BME280;60220;53.552;10.092;2023-04-26T05:36:37;101289.41;;;5.27;76.65
72285;BME280;60220;53.552;10.092;2023-04-26T05:39:06;101292.94;;;5.86;75.94
72285;BME280;60220;53.552;10.092;2023-04-26T05:41:34;101291.94;;;5.22;76.37
72285;BME280;60220;53.552;10.092;2023-04-26T05:44:03;101295.44;;;4.78;77.95
72285;BME280;60220;53.552;10.092;2023-04-26T05:46:29;101294.09;;;4.98;79.23
72285;BME280;60220;53.552;10.092;2023-04-26T05:48:56;101298.41;;;4.99;78.90
72285;BME280;60220;53.552;10.092;2023-04-26T05:51:25;101301.56;;;5.29;78.57
72285;BME280;60220;53.552;10.092;2023-04-26T05:53:52;101292.63;;;5.64;76.05
72285;BME280;60220;53.552;10.092;2023-04-26T05:56:19;101302.59;;;5.37;76.39
72285;BME280;60220;53.552;10.092;2023-04-26T05:58:47;101308.03;;;5.01;75.74
72285;BME280;60220;53.552;10.092;2023-04-26T06:01:14;101308.06;;;5.03;76.67
72285;BME280;60220;53.552;10.092;2023-04-26T06:03:43;101312.91;;;5.31;77.24
72285;BME280;60220;53.552;10.092;2023-04-26T06:06:09;101308.16;;;5.60;75.76
72285;BME280;60220;53.552;10.092;2023-04-26T06:08:36;101299.31;;;5.49;75.59
72285;BME280;60220;53.552;10.092;2023-04-26T06:11:03;101302.84;;;5.54;75.38
72285;BME280;60220;53.552;10.092;2023-04-26T06:13:31;101298.75;;;5.68;75.03
72285;BME280;60220;53.552;10.092;2023-04-26T06:15:59;101302.47;;;5.84;73.68
72285;BME280;60220;53.552;10.092;2023-04-26T06:18:28;101299.81;;;5.81;74.12
72285;BME280;60220;53.552;10.092;2023-04-26T06:20:57;101301.13;;;5.54;74.56
72285;BME280;60220;53.552;10.092;2023-04-26T06:23:25;101296.94;;;5.11;75.44
72285;BME280;60220;53.552;10.092;2023-04-26T06:25:51;101297.16;;;5.25;75.59
72285;BME280;60220;53.552;10.092;2023-04-26T06:28:20;101301.25;;;5.60;75.88
72285;BME280;60220;53.552;10.092;2023-04-26T06:30:47;101294.78;;;5.37;75.02
72285;BME280;60220;53.552;10.092;2023-04-26T06:33:16;101298.53;;;6.10;74.75
72285;BME280;60220;53.552;10.092;2023-04-26T06:35:42;101291.75;;;6.21;72.83
72285;BME280;60220;53.552;10.092;2023-04-26T06:38:09;101305.69;;;6.25;73.03
72285;BME280;60220;53.552;10.092;2023-04-26T06:40:37;101300.03;;;5.93;73.00
72285;BME280;60220;53.552;10.092;2023-04-26T06:43:04;101294.13;;;6.74;72.17
72285;BME280;60220;53.552;10.092;2023-04-26T06:45:30;101293.75;;;6.40;71.31
72285;BME280;60220;53.552;10.092;2023-04-26T06:47:59;101299.31;;;6.71;72.07
72285;BME280;60220;53.552;10.092;2023-04-26T06:50:29;101299.97;;;6.52;71.52
72285;BME280;60220;53.552;10.092;2023-04-26T06:52:55;101299.56;;;6.92;71.18
72285;BME280;60220;53.552;10.092;2023-04-26T06:55:22;101299.91;;;7.28;70.30
72285;BME280;60220;53.552;10.092;2023-04-26T06:57:49;101294.97;;;6.70;69.06
72285;BME280;60220;53.552;10.092;2023-04-26T07:00:16;101301.53;;;7.14;68.28
72285;BME280;60220;53.552;10.092;2023-04-26T07:02:45;101293.31;;;7.70;66.04
72285;BME280;60220;53.552;10.092;2023-04-26T07:05:12;101303.53;;;7.43;66.53
72285;BME280;60220;53.552;10.092;2023-04-26T07:07:41;101309.47;;;7.25;65.58
72285;BME280;60220;53.552;10.092;2023-04-26T07:10:08;101305.47;;;7.68;66.09
72285;BME280;60220;53.552;10.092;2023-04-26T07:12:35;101301.44;;;8.14;64.37
72285;BME280;60220;53.552;10.092;2023-04-26T07:15:02;101304.13;;;8.28;63.56
72285;BME280;60220;53.552;10.092;2023-04-26T07:17:33;101306.19;;;9.07;60.18
72285;BME280;60220;53.552;10.092;2023-04-26T07:20:02;101305.88;;;8.26;61.42
72285;BME280;60220;53.552;10.092;2023-04-26T07:22:30;101303.41;;;8.54;61.30
72285;BME280;60220;53.552;10.092;2023-04-26T07:24:58;101302.34;;;8.19;62.19
72285;BME280;60220;53.552;10.092;2023-04-26T07:27:25;101297.25;;;8.36;61.26
72285;BME280;60220;53.552;10.092;2023-04-26T07:29:52;101307.13;;;9.46;58.47
72285;BME280;60220;53.552;10.092;2023-04-26T07:32:19;101301.00;;;9.35;58.12
72285;BME280;60220;53.552;10.092;2023-04-26T07:34:46;101301.47;;;8.20;61.94
72285;BME280;60220;53.552;10.092;2023-04-26T07:37:13;101304.44;;;7.48;62.40
72285;BME280;60220;53.552;10.092;2023-04-26T07:39:40;101317.59;;;7.57;64.16
72285;BME280;60220;53.552;10.092;2023-04-26T07:42:09;101301.38;;;8.03;61.58
72285;BME280;60220;53.552;10.092;2023-04-26T07:44:38;101313.00;;;8.51;59.16
72285;BME280;60220;53.552;10.092;2023-04-26T07:47:10;101318.19;;;8.43;58.82
72285;BME280;60220;53.552;10.092;2023-04-26T07:49:37;101309.72;;;9.25;56.33
72285;BME280;60220;53.552;10.092;2023-04-26T07:52:04;101310.59;;;10.18;55.10
72285;BME280;60220;53.552;10.092;2023-04-26T07:54:33;101307.69;;;10.91;52.69
72285;BME280;60220;53.552;10.092;2023-04-26T07:57:00;101316.69;;;10.17;52.38
72285;BME280;60220;53.552;10.092;2023-04-26T07:59:28;101319.31;;;9.32;56.21
72285;BME280;60220;53.552;10.092;2023-04-26T08:01:57;101313.69;;;8.22;57.12
72285;BME280;60220;53.552;10.092;2023-04-26T08:04:30;101332.38;;;7.55;60.39
72285;BME280;60220;53.552;10.092;2023-04-26T08:07:00;101333.16;;;7.48;60.95
72285;BME280;60220;53.552;10.092;2023-04-26T08:09:30;101337.00;;;7.89;61.30
72285;BME280;60220;53.552;10.092;2023-04-26T08:11:57;101352.75;;;7.03;65.15
72285;BME280;60220;53.552;10.092;2023-04-26T08:14:26;101380.88;;;5.97;71.94
72285;BME280;60220;53.552;10.092;2023-04-26T08:16:55;101378.84;;;6.35;76.05
72285;BME280;60220;53.552;10.092;2023-04-26T08:19:22;101372.06;;;5.89;75.70
72285;BME280;60220;53.552;10.092;2023-04-26T08:21:51;101368.22;;;6.23;76.60
72285;BME280;60220;53.552;10.092;2023-04-26T08:24:17;101371.94;;;6.37;76.27
72285;BME280;60220;53.552;10.092;2023-04-26T08:26:44;101366.03;;;6.51;75.94
72285;BME280;60220;53.552;10.092;2023-04-26T08:29:11;101365.00;;;6.39;76.45
72285;BME280;60220;53.552;10.092;2023-04-26T08:31:39;101368.72;;;6.57;76.16
72285;BME280;60220;53.552;10.092;2023-04-26T08:34:09;101370.53;;;6.64;76.88
72285;BME280;60220;53.552;10.092;2023-04-26T08:36:40;101369.75;;;6.69;74.72
72285;BME280;60220;53.552;10.092;2023-04-26T08:39:07;101370.19;;;7.06;74.55
72285;BME280;60220;53.552;10.092;2023-04-26T08:41:37;101368.53;;;7.12;72.55
72285;BME280;60220;53.552;10.092;2023-04-26T08:44:07;101371.28;;;7.27;71.52
72285;BME280;60220;53.552;10.092;2023-04-26T08:46:43;101365.53;;;7.63;70.42
72285;BME280;60220;53.552;10.092;2023-04-26T08:49:20;101369.84;;;7.58;67.19
72285;BME280;60220;53.552;10.092;2023-04-26T08:51:52;101359.84;;;8.17;67.51
72285;BME280;60220;53.552;10.092;2023-04-26T08:54:20;101366.31;;;8.76;64.72
72285;BME280;60220;53.552;10.092;2023-04-26T08:56:48;101362.94;;;9.04;63.53
72285;BME280;60220;53.552;10.092;2023-04-26T08:59:14;101368.25;;;9.48;62.58
72285;BME280;60220;53.552;10.092;2023-04-26T09:01:43;101361.25;;;9.32;60.84
72285;BME280;60220;53.552;10.092;2023-04-26T09:04:11;101363.81;;;9.01;61.29
72285;BME280;60220;53.552;10.092;2023-04-26T09:06:42;101354.22;;;10.60;57.84
72285;BME280;60220;53.552;10.092;2023-04-26T09:09:12;101348.09;;;10.53;56.99
72285;BME280;60220;53.552;10.092;2023-04-26T09:11:52;101350.81;;;9.58;59.48
72285;BME280;60220;53.552;10.092;2023-04-26T09:14:22;101354.06;;;8.67;61.62
72285;BME280;60220;53.552;10.092;2023-04-26T09:16:51;101351.66;;;9.43;64.05
72285;BME280;60220;53.552;10.092;2023-04-26T09:19:33;101352.56;;;10.25;58.81
72285;BME280;60220;53.552;10.092;2023-04-26T09:22:03;101346.44;;;10.25;55.99
72285;BME280;60220;53.552;10.092;2023-04-26T09:24:45;101348.19;;;9.83;57.75
72285;BME280;60220;53.552;10.092;2023-04-26T09:27:12;101342.88;;;9.01;59.47
72285;BME280;60220;53.552;10.092;2023-04-26T09:29:40;101348.97;;;9.05;60.94
72285;BME280;60220;53.552;10.092;2023-04-26T09:32:06;101353.38;;;9.23;62.04
72285;BME280;60220;53.552;10.092;2023-04-26T09:34:43;101356.06;;;9.76;58.19
72285;BME280;60220;53.552;10.092;2023-04-26T09:37:12;101342.91;;;9.32;58.92
72285;BME280;60220;53.552;10.092;2023-04-26T09:39:40;101349.06;;;10.19;59.67
72285;BME280;60220;53.552;10.092;2023-04-26T09:42:09;101344.66;;;9.33;57.65
72285;BME280;60220;53.552;10.092;2023-04-26T09:44:37;101343.78;;;10.11;56.86
72285;BME280;60220;53.552;10.092;2023-04-26T09:47:05;101340.31;;;9.79;55.35
72285;BME280;60220;53.552;10.092;2023-04-26T09:49:43;101355.03;;;8.93;55.25
72285;BME280;60220;53.552;10.092;2023-04-26T09:52:10;101349.06;;;9.72;52.52
72285;BME280;60220;53.552;10.092;2023-04-26T09:54:39;101351.69;;;9.58;49.15
72285;BME280;60220;53.552;10.092;2023-04-26T09:57:06;101345.56;;;9.65;49.70
72285;BME280;60220;53.552;10.092;2023-04-26T09:59:42;101348.16;;;10.35;49.22
72285;BME280;60220;53.552;10.092;2023-04-26T10:02:15;101347.31;;;10.19;47.87
72285;BME280;60220;53.552;10.092;2023-04-26T10:04:47;101352.56;;;9.65;46.68
72285;BME280;60220;53.552;10.092;2023-04-26T10:07:15;101352.53;;;10.34;49.20
72285;BME280;60220;53.552;10.092;2023-04-26T10:09:44;101351.69;;;9.88;47.07
72285;BME280;60220;53.552;10.092;2023-04-26T10:12:12;101354.31;;;10.20;48.33
72285;BME280;60220;53.552;10.092;2023-04-26T10:14:42;101348.16;;;10.02;48.33
72285;BME280;60220;53.552;10.092;2023-04-26T10:17:09;101348.19;;;9.74;50.64
72285;BME280;60220;53.552;10.092;2023-04-26T10:19:38;101352.56;;;9.45;51.07
72285;BME280;60220;53.552;10.092;2023-04-26T10:22:15;101355.78;;;8.63;54.99
72285;BME280;60220;53.552;10.092;2023-04-26T10:24:44;101363.38;;;8.22;56.83
72285;BME280;60220;53.552;10.092;2023-04-26T10:27:11;101377.34;;;8.25;57.73
72285;BME280;60220;53.552;10.092;2023-04-26T10:30:07;101383.06;;;7.75;58.53
72285;BME280;60220;53.552;10.092;2023-04-26T10:36:09;101375.25;;;7.79;61.12
72285;BME280;60220;53.552;10.092;2023-04-26T10:38:38;101376.94;;;7.70;61.31
72285;BME280;60220;53.552;10.092;2023-04-26T10:41:36;101377.28;;;8.15;59.88
72285;BME280;60220;53.552;10.092;2023-04-26T10:44:36;101375.72;;;8.39;59.77
72285;BME280;60220;53.552;10.092;2023-04-26T10:47:04;101373.06;;;8.33;58.55
72285;BME280;60220;53.552;10.092;2023-04-26T10:49:43;101366.22;;;8.57;56.71
72285;BME280;60220;53.552;10.092;2023-04-26T10:52:12;101366.19;;;8.48;57.90
72285;BME280;60220;53.552;10.092;2023-04-26T10:54:54;101370.72;;;8.81;56.33
72285;BME280;60220;53.552;10.092;2023-04-26T10:57:24;101367.09;;;8.58;56.44
72285;BME280;60220;53.552;10.092;2023-04-26T11:00:24;101361.81;;;8.49;57.64
72285;BME280;60220;53.552;10.092;2023-04-26T11:02:53;101367.41;;;9.46;54.46
72285;BME280;60220;53.552;10.092;2023-04-26T11:05:33;101368.03;;;8.69;54.82
72285;BME280;60220;53.552;10.092;2023-04-26T11:08:04;101377.69;;;8.82;56.42
72285;BME280;60220;53.552;10.092;2023-04-26T11:10:39;101384.56;;;8.62;58.79
72285;BME280;60220;53.552;10.092;2023-04-26T11:13:06;101396.69;;;8.48;56.48
72285;BME280;60220;53.552;10.092;2023-04-26T11:15:34;101387.69;;;8.12;56.21
72285;BME280;60220;53.552;10.092;2023-04-26T11:18:03;101379.16;;;8.30;53.45
72285;BME280;60220;53.552;10.092;2023-04-26T11:20:30;101374.09;;;8.62;53.21
72285;BME280;60220;53.552;10.092;2023-04-26T11:22:58;101380.38;;;8.96;53.80
72285;BME280;60220;53.552;10.092;2023-04-26T11:25:26;101383.91;;;9.08;53.38
72285;BME280;60220;53.552;10.092;2023-04-26T11:27:58;101385.47;;;8.67;54.99
72285;BME280;60220;53.552;10.092;2023-04-26T11:30:24;101383.91;;;9.10;53.16
72285;BME280;60220;53.552;10.092;2023-04-26T11:32:54;101376.97;;;9.32;52.75
72285;BME280;60220;53.552;10.092;2023-04-26T11:35:21;101381.38;;;9.51;53.05
72285;BME280;60220;53.552;10.092;2023-04-26T11:37:51;101379.63;;;9.53;53.20
72285;BME280;60220;53.552;10.092;2023-04-26T11:40:18;101373.53;;;9.95;53.43
72285;BME280;60220;53.552;10.092;2023-04-26T11:42:44;101377.91;;;9.85;53.14
72285;BME280;60220;53.552;10.092;2023-04-26T11:45:14;101374.41;;;9.86;53.07
72285;BME280;60220;53.552;10.092;2023-04-26T11:47:42;101383.16;;;9.81;53.92
72285;BME280;60220;53.552;10.092;2023-04-26T11:50:11;101384.88;;;9.67;53.59
72285;BME280;60220;53.552;10.092;2023-04-26T11:52:38;101377.03;;;9.83;52.68
72285;BME280;60220;53.552;10.092;2023-04-26T11:55:06;101391.88;;;9.72;49.57
72285;BME280;60220;53.552;10.092;2023-04-26T11:57:33;101379.63;;;9.44;49.48
72285;BME280;60220;53.552;10.092;2023-04-26T12:00:10;101388.34;;;9.40;49.20
72285;BME280;60220;53.552;10.092;2023-04-26T12:02:44;101384.63;;;8.74;50.09
72285;BME280;60220;53.552;10.092;2023-04-26T12:05:21;101388.16;;;8.84;50.25
72285;BME280;60220;53.552;10.092;2023-04-26T12:07:52;101380.53;;;9.88;48.80
72285;BME280;60220;53.552;10.092;2023-04-26T12:10:24;101384.91;;;10.20;47.86
72285;BME280;60220;53.552;10.092;2023-04-26T12:12:53;101387.44;;;10.62;48.98
72285;BME280;60220;53.552;10.092;2023-04-26T12:15:28;101381.09;;;11.18;47.25
72285;BME280;60220;53.552;10.092;2023-04-26T12:17:58;101376.94;;;10.65;46.68
72285;BME280;60220;53.552;10.092;2023-04-26T12:20:27;101382.28;;;10.17;48.21
72285;BME280;60220;53.552;10.092;2023-04-26T12:22:59;101373.53;;;10.22;47.51
72285;BME280;60220;53.552;10.092;2023-04-26T12:25:27;101374.69;;;11.58;47.53
72285;BME280;60220;53.552;10.092;2023-04-26T12:27:54;101377.56;;;11.25;46.05
72285;BME280;60220;53.552;10.092;2023-04-26T12:30:21;101385.78;;;10.34;47.26
72285;BME280;60220;53.552;10.092;2023-04-26T12:32:48;101388.22;;;10.92;46.06
72285;BME280;60220;53.552;10.092;2023-04-26T12:35:15;101376.06;;;10.57;45.77
72285;BME280;60220;53.552;10.092;2023-04-26T12:37:43;101386.44;;;11.00;45.39
72285;BME280;60220;53.552;10.092;2023-04-26T12:40:11;101382.09;;;10.90;45.43
72285;BME280;60220;53.552;10.092;2023-04-26T12:42:40;101382.28;;;9.94;46.63
72285;BME280;60220;53.552;10.092;2023-04-26T12:45:07;101381.41;;;9.69;48.08
72285;BME280;60220;53.552;10.092;2023-04-26T12:47:34;101375.22;;;10.55;47.83
72285;BME280;60220;53.552;10.092;2023-04-26T12:50:01;101391.78;;;10.72;47.34
72285;BME280;60220;53.552;10.092;2023-04-26T12:52:29;101390.13;;;10.38;47.52
72285;BME280;60220;53.552;10.092;2023-04-26T12:54:59;101403.25;;;9.76;50.39
72285;BME280;60220;53.552;10.092;2023-04-26T12:57:26;101393.66;;;10.25;49.17
72285;BME280;60220;53.552;10.092;2023-04-26T12:59:53;101405.88;;;9.83;48.22